sensor_id;sensor_type;location;lat;lon;timestamp;P1;durP1;ratioP1;P2;durP2;ratioP2
28373;SDS011;15616;40.148;-102.718;2023-01-24T00:01:12;12.95;;;2.95;;
28373;SDS011;15616;40.148;-102.718;2023-01-24T00:03:38;12.13;;;2.88;;
28373;SDS011;15616;40.148;-102.718;2023-01-24T00:06:04;14.98;;;3.13;;
28373;SDS011;15616;40.148;-102.718;2023-01-24T00:08:30;9.20;;;3.33;;
28373;SDS011;15616;40.148;-102.718;2023-01-24T00:11:03;17.73;;;3.75;;
28373;SDS011;15616;40.148;-102.718;2023-01-24T00:16:03;11.65;;;3.28;;
28373;SDS011;15616;40.148;-102.718;2023-01-24T00:18:31;12.70;;;2.90;;
28373;SDS011;15616;40.148;-102.718;2023-01-24T00:21:05;10.32;;;2.42;;
28373;SDS011;15616;40.148;-102.718;2023-01-24T00:23:37;15.82;;;3.25;;
28373;SDS011;15616;40.148;-102.718;2023-01-24T00:26:05;16.45;;;3.08;;
28373;SDS011;15616;40.148;-102.718;2023-01-24T00:28:32;11.90;;;3.10;;
28373;SDS011;15616;40.148;-102.718;2023-01-24T00:30:58;12.02;;;3.10;;
28373;SDS011;15616;40.148;-102.718;2023-01-24T00:33:24;10.25;;;2.80;;
28373;SDS011;15616;40.148;-102.718;2023-01-24T00:35:51;10.10;;;2.80;;
28373;SDS011;15616;40.148;-102.718;2023-01-24T00:38:17;13.35;;;3.53;;
28373;SDS011;15616;40.148;-102.718;2023-01-24T00:40:44;8.90;;;2.63;;
28373;SDS011;15616;40.148;-102.718;2023-01-24T00:43:10;12.85;;;2.83;;
28373;SDS011;15616;40.148;-102.718;2023-01-24T00:45:36;10.75;;;2.70;;
28373;SDS011;15616;40.148;-102.718;2023-01-24T00:48:03;11.88;;;3.20;;
28373;SDS011;15616;40.148;-102.718;2023-01-24T00:50:29;13.75;;;2.75;;
28373;SDS011;15616;40.148;-102.718;2023-01-24T00:52:55;11.07;;;2.80;;
28373;SDS011;15616;40.148;-102.718;2023-01-24T00:55:21;8.02;;;2.60;;
28373;SDS011;15616;40.148;-102.718;2023-01-24T00:57:47;12.70;;;3.40;;
28373;SDS011;15616;40.148;-102.718;2023-01-24T01:00:13;11.70;;;2.80;;
28373;SDS011;15616;40.148;-102.718;2023-01-24T01:02:39;10.35;;;2.83;;
28373;SDS011;15616;40.148;-102.718;2023-01-24T01:05:05;10.25;;;2.88;;
28373;SDS011;15616;40.148;-102.718;2023-01-24T01:07:31;12.35;;;2.92;;
28373;SDS011;15616;40.148;-102.718;2023-01-24T01:09:57;10.75;;;2.80;;
28373;SDS011;15616;40.148;-102.718;2023-01-24T01:12:23;10.95;;;2.70;;
28373;SDS011;15616;40.148;-102.718;2023-01-24T01:14:49;8.70;;;2.80;;
28373;SDS011;15616;40.148;-102.718;2023-01-24T01:17:15;11.68;;;3.00;;
28373;SDS011;15616;40.148;-102.718;2023-01-24T01:19:41;11.48;;;2.85;;
28373;SDS011;15616;40.148;-102.718;2023-01-24T01:22:07;12.00;;;2.92;;
28373;SDS011;15616;40.148;-102.718;2023-01-24T01:24:33;10.40;;;3.15;;
28373;SDS011;15616;40.148;-102.718;2023-01-24T01:26:59;8.65;;;2.60;;
28373;SDS011;15616;40.148;-102.718;2023-01-24T01:29:25;9.27;;;2.60;;
28373;SDS011;15616;40.148;-102.718;2023-01-24T01:31:51;10.27;;;2.95;;
28373;SDS011;15616;40.148;-102.718;2023-01-24T01:34:17;10.02;;;2.58;;
28373;SDS011;15616;40.148;-102.718;2023-01-24T01:36:43;8.90;;;2.50;;
28373;SDS011;15616;40.148;-102.718;2023-01-24T01:39:10;10.98;;;3.28;;
28373;SDS011;15616;40.148;-102.718;2023-01-24T01:41:35;17.67;;;3.30;;
28373;SDS011;15616;40.148;-102.718;2023-01-24T01:49:51;10.32;;;2.38;;
28373;SDS011;15616;40.148;-102.718;2023-01-24T01:52:19;9.43;;;2.88;;
28373;SDS011;15616;40.148;-102.718;2023-01-24T01:54:47;8.63;;;2.42;;
28373;SDS011;15616;40.148;-102.718;2023-01-24T01:57:18;9.63;;;2.60;;
28373;SDS011;15616;40.148;-102.718;2023-01-24T01:59:55;12.30;;;2.85;;
28373;SDS011;15616;40.148;-102.718;2023-01-24T02:02:29;9.85;;;3.15;;
28373;SDS011;15616;40.148;-102.718;2023-01-24T02:04:57;8.98;;;2.63;;
28373;SDS011;15616;40.148;-102.718;2023-01-24T02:07:43;10.00;;;2.38;;
28373;SDS011;15616;40.148;-102.718;2023-01-24T02:10:15;12.25;;;2.70;;
28373;SDS011;15616;40.148;-102.718;2023-01-24T02:12:47;9.93;;;2.70;;
28373;SDS011;15616;40.148;-102.718;2023-01-24T02:15:18;10.38;;;2.80;;
28373;SDS011;15616;40.148;-102.718;2023-01-24T02:18:06;12.23;;;2.83;;
28373;SDS011;15616;40.148;-102.718;2023-01-24T02:20:37;8.57;;;3.08;;
28373;SDS011;15616;40.148;-102.718;2023-01-24T02:25:32;10.20;;;2.63;;
28373;SDS011;15616;40.148;-102.718;2023-01-24T02:28:05;12.43;;;2.53;;
28373;SDS011;15616;40.148;-102.718;2023-01-24T02:30:34;9.13;;;2.70;;
28373;SDS011;15616;40.148;-102.718;2023-01-24T02:33:11;8.18;;;2.30;;
28373;SDS011;15616;40.148;-102.718;2023-01-24T02:35:45;10.73;;;2.78;;
28373;SDS011;15616;40.148;-102.718;2023-01-24T02:40:43;10.30;;;2.92;;
28373;SDS011;15616;40.148;-102.718;2023-01-24T02:43:11;10.70;;;2.67;;
28373;SDS011;15616;40.148;-102.718;2023-01-24T02:45:39;9.63;;;2.78;;
28373;SDS011;15616;40.148;-102.718;2023-01-24T02:48:05;10.48;;;2.63;;
28373;SDS011;15616;40.148;-102.718;2023-01-24T02:50:31;10.82;;;2.50;;
28373;SDS011;15616;40.148;-102.718;2023-01-24T02:53:16;9.85;;;2.85;;
28373;SDS011;15616;40.148;-102.718;2023-01-24T02:55:54;10.43;;;2.40;;
28373;SDS011;15616;40.148;-102.718;2023-01-24T02:58:40;10.18;;;2.80;;
28373;SDS011;15616;40.148;-102.718;2023-01-24T03:01:06;13.52;;;2.70;;
28373;SDS011;15616;40.148;-102.718;2023-01-24T03:03:32;8.35;;;2.45;;
28373;SDS011;15616;40.148;-102.718;2023-01-24T03:05:57;9.05;;;2.47;;
28373;SDS011;15616;40.148;-102.718;2023-01-24T03:08:24;8.93;;;2.60;;
28373;SDS011;15616;40.148;-102.718;2023-01-24T03:10:52;11.27;;;2.60;;
28373;SDS011;15616;40.148;-102.718;2023-01-24T03:13:19;10.80;;;2.50;;
28373;SDS011;15616;40.148;-102.718;2023-01-24T03:16:03;7.75;;;2.70;;
28373;SDS011;15616;40.148;-102.718;2023-01-24T03:18:49;13.77;;;2.97;;
28373;SDS011;15616;40.148;-102.718;2023-01-24T03:21:33;9.32;;;2.50;;
28373;SDS011;15616;40.148;-102.718;2023-01-24T03:24:18;6.55;;;2.38;;
28373;SDS011;15616;40.148;-102.718;2023-01-24T03:27:02;9.27;;;2.63;;
28373;SDS011;15616;40.148;-102.718;2023-01-24T03:29:47;7.43;;;2.42;;
28373;SDS011;15616;40.148;-102.718;2023-01-24T03:32:31;9.17;;;2.43;;
28373;SDS011;15616;40.148;-102.718;2023-01-24T03:35:15;7.82;;;2.42;;
28373;SDS011;15616;40.148;-102.718;2023-01-24T03:37:42;6.63;;;2.40;;
28373;SDS011;15616;40.148;-102.718;2023-01-24T03:40:27;8.63;;;2.58;;
28373;SDS011;15616;40.148;-102.718;2023-01-24T03:42:53;8.68;;;2.40;;
28373;SDS011;15616;40.148;-102.718;2023-01-24T03:45:26;8.55;;;3.03;;
28373;SDS011;15616;40.148;-102.718;2023-01-24T03:47:54;9.18;;;2.40;;
28373;SDS011;15616;40.148;-102.718;2023-01-24T03:50:23;10.90;;;2.97;;
28373;SDS011;15616;40.148;-102.718;2023-01-24T03:53:09;9.18;;;2.70;;
28373;SDS011;15616;40.148;-102.718;2023-01-24T03:55:35;11.80;;;3.13;;
28373;SDS011;15616;40.148;-102.718;2023-01-24T03:58:01;6.70;;;2.80;;
28373;SDS011;15616;40.148;-102.718;2023-01-24T04:00:28;7.65;;;2.70;;
28373;SDS011;15616;40.148;-102.718;2023-01-24T04:02:54;9.95;;;3.05;;
28373;SDS011;15616;40.148;-102.718;2023-01-24T04:05:20;8.38;;;2.40;;
28373;SDS011;15616;40.148;-102.718;2023-01-24T04:07:47;8.77;;;2.72;;
28373;SDS011;15616;40.148;-102.718;2023-01-24T04:10:13;6.68;;;2.70;;
28373;SDS011;15616;40.148;-102.718;2023-01-24T04:12:40;7.65;;;2.80;;
28373;SDS011;15616;40.148;-102.718;2023-01-24T04:15:07;7.75;;;2.40;;
28373;SDS011;15616;40.148;-102.718;2023-01-24T04:17:38;7.10;;;2.40;;
28373;SDS011;15616;40.148;-102.718;2023-01-24T04:20:04;7.90;;;2.78;;
28373;SDS011;15616;40.148;-102.718;2023-01-24T04:22:30;10.40;;;2.65;;
28373;SDS011;15616;40.148;-102.718;2023-01-24T04:24:56;7.10;;;2.38;;
28373;SDS011;15616;40.148;-102.718;2023-01-24T04:27:22;9.73;;;2.72;;
28373;SDS011;15616;40.148;-102.718;2023-01-24T04:29:48;9.68;;;2.60;;
28373;SDS011;15616;40.148;-102.718;2023-01-24T04:32:14;7.60;;;2.30;;
28373;SDS011;15616;40.148;-102.718;2023-01-24T04:34:40;7.53;;;2.30;;
28373;SDS011;15616;40.148;-102.718;2023-01-24T04:37:06;10.20;;;2.78;;
28373;SDS011;15616;40.148;-102.718;2023-01-24T04:39:32;9.07;;;2.65;;
28373;SDS011;15616;40.148;-102.718;2023-01-24T04:41:58;5.45;;;2.22;;
28373;SDS011;15616;40.148;-102.718;2023-01-24T04:44:24;5.22;;;2.13;;
28373;SDS011;15616;40.148;-102.718;2023-01-24T04:46:50;10.80;;;2.60;;
28373;SDS011;15616;40.148;-102.718;2023-01-24T04:49:15;8.10;;;2.45;;
28373;SDS011;15616;40.148;-102.718;2023-01-24T04:51:42;7.78;;;2.40;;
28373;SDS011;15616;40.148;-102.718;2023-01-24T04:54:09;8.68;;;2.63;;
28373;SDS011;15616;40.148;-102.718;2023-01-24T04:56:36;8.18;;;2.75;;
28373;SDS011;15616;40.148;-102.718;2023-01-24T04:59:02;6.70;;;2.30;;
28373;SDS011;15616;40.148;-102.718;2023-01-24T05:01:28;6.97;;;2.20;;
28373;SDS011;15616;40.148;-102.718;2023-01-24T05:03:54;6.75;;;2.40;;
28373;SDS011;15616;40.148;-102.718;2023-01-24T05:06:27;11.13;;;2.65;;
28373;SDS011;15616;40.148;-102.718;2023-01-24T05:08:55;8.93;;;2.67;;
28373;SDS011;15616;40.148;-102.718;2023-01-24T05:11:23;8.15;;;2.72;;
28373;SDS011;15616;40.148;-102.718;2023-01-24T05:13:49;10.38;;;2.55;;
28373;SDS011;15616;40.148;-102.718;2023-01-24T05:16:15;8.82;;;2.63;;
28373;SDS011;15616;40.148;-102.718;2023-01-24T05:18:41;6.85;;;2.40;;
28373;SDS011;15616;40.148;-102.718;2023-01-24T05:21:08;7.70;;;2.80;;
28373;SDS011;15616;40.148;-102.718;2023-01-24T05:23:37;5.15;;;2.40;;
28373;SDS011;15616;40.148;-102.718;2023-01-24T05:26:03;7.65;;;2.17;;
28373;SDS011;15616;40.148;-102.718;2023-01-24T05:28:30;7.10;;;2.78;;
28373;SDS011;15616;40.148;-102.718;2023-01-24T05:30:59;6.50;;;2.33;;
28373;SDS011;15616;40.148;-102.718;2023-01-24T05:33:27;5.43;;;2.33;;
28373;SDS011;15616;40.148;-102.718;2023-01-24T05:36:00;7.10;;;2.70;;
28373;SDS011;15616;40.148;-102.718;2023-01-24T05:38:27;7.97;;;2.40;;
28373;SDS011;15616;40.148;-102.718;2023-01-24T05:40:53;7.75;;;2.60;;
28373;SDS011;15616;40.148;-102.718;2023-01-24T05:43:23;5.88;;;2.70;;
28373;SDS011;15616;40.148;-102.718;2023-01-24T05:45:49;7.13;;;2.67;;
28373;SDS011;15616;40.148;-102.718;2023-01-24T05:48:15;5.88;;;2.80;;
28373;SDS011;15616;40.148;-102.718;2023-01-24T05:50:41;6.20;;;2.38;;
28373;SDS011;15616;40.148;-102.718;2023-01-24T05:53:07;6.93;;;2.45;;
28373;SDS011;15616;40.148;-102.718;2023-01-24T05:55:33;5.15;;;2.35;;
28373;SDS011;15616;40.148;-102.718;2023-01-24T05:58:00;8.15;;;2.55;;
28373;SDS011;15616;40.148;-102.718;2023-01-24T06:00:26;6.28;;;2.58;;
28373;SDS011;15616;40.148;-102.718;2023-01-24T06:02:52;6.63;;;2.30;;
28373;SDS011;15616;40.148;-102.718;2023-01-24T06:05:18;5.72;;;2.60;;
28373;SDS011;15616;40.148;-102.718;2023-01-24T06:07:44;7.15;;;2.80;;
28373;SDS011;15616;40.148;-102.718;2023-01-24T06:10:10;6.45;;;2.15;;
28373;SDS011;15616;40.148;-102.718;2023-01-24T06:12:36;8.95;;;2.65;;
28373;SDS011;15616;40.148;-102.718;2023-01-24T06:15:02;7.15;;;2.90;;
28373;SDS011;15616;40.148;-102.718;2023-01-24T06:17:28;7.10;;;2.55;;
28373;SDS011;15616;40.148;-102.718;2023-01-24T06:19:54;8.57;;;2.90;;
28373;SDS011;15616;40.148;-102.718;2023-01-24T06:22:22;15.05;;;3.20;;
28373;SDS011;15616;40.148;-102.718;2023-01-24T06:25:02;22.02;;;3.30;;
28373;SDS011;15616;40.148;-102.718;2023-01-24T06:27:28;19.10;;;3.05;;
28373;SDS011;15616;40.148;-102.718;2023-01-24T06:29:54;13.00;;;2.63;;
28373;SDS011;15616;40.148;-102.718;2023-01-24T06:32:30;19.15;;;2.92;;
28373;SDS011;15616;40.148;-102.718;2023-01-24T06:35:16;17.80;;;3.63;;
28373;SDS011;15616;40.148;-102.718;2023-01-24T06:37:50;13.82;;;2.90;;
28373;SDS011;15616;40.148;-102.718;2023-01-24T06:40:21;18.95;;;2.95;;
28373;SDS011;15616;40.148;-102.718;2023-01-24T06:42:48;15.20;;;3.15;;
28373;SDS011;15616;40.148;-102.718;2023-01-24T06:45:15;19.10;;;2.92;;
28373;SDS011;15616;40.148;-102.718;2023-01-24T06:47:42;19.85;;;3.17;;
28373;SDS011;15616;40.148;-102.718;2023-01-24T06:50:41;16.13;;;3.25;;
28373;SDS011;15616;40.148;-102.718;2023-01-24T06:53:00;13.45;;;3.08;;
28373;SDS011;15616;40.148;-102.718;2023-01-24T06:55:25;14.20;;;3.78;;
28373;SDS011;15616;40.148;-102.718;2023-01-24T06:57:55;19.20;;;3.45;;
28373;SDS011;15616;40.148;-102.718;2023-01-24T07:00:22;32.72;;;4.00;;
28373;SDS011;15616;40.148;-102.718;2023-01-24T07:02:48;17.67;;;3.88;;
28373;SDS011;15616;40.148;-102.718;2023-01-24T07:05:21;22.75;;;3.55;;
28373;SDS011;15616;40.148;-102.718;2023-01-24T07:07:47;21.02;;;3.72;;
28373;SDS011;15616;40.148;-102.718;2023-01-24T07:10:13;34.67;;;4.10;;
28373;SDS011;15616;40.148;-102.718;2023-01-24T07:12:42;22.17;;;4.22;;
28373;SDS011;15616;40.148;-102.718;2023-01-24T07:15:08;26.95;;;4.25;;
28373;SDS011;15616;40.148;-102.718;2023-01-24T07:17:34;31.40;;;4.55;;
28373;SDS011;15616;40.148;-102.718;2023-01-24T07:20:01;29.60;;;4.13;;
28373;SDS011;15616;40.148;-102.718;2023-01-24T07:22:27;27.45;;;4.05;;
28373;SDS011;15616;40.148;-102.718;2023-01-24T07:24:53;23.35;;;3.90;;
28373;SDS011;15616;40.148;-102.718;2023-01-24T07:27:20;227.07;;;19.90;;
28373;SDS011;15616;40.148;-102.718;2023-01-24T07:29:46;57.17;;;5.63;;
28373;SDS011;15616;40.148;-102.718;2023-01-24T07:32:12;39.15;;;4.45;;
28373;SDS011;15616;40.148;-102.718;2023-01-24T07:34:38;38.90;;;6.20;;
28373;SDS011;15616;40.148;-102.718;2023-01-24T07:37:08;37.47;;;4.97;;
28373;SDS011;15616;40.148;-102.718;2023-01-24T07:39:34;57.25;;;5.65;;
28373;SDS011;15616;40.148;-102.718;2023-01-24T07:42:00;26.50;;;4.13;;
28373;SDS011;15616;40.148;-102.718;2023-01-24T07:44:26;28.13;;;4.50;;
28373;SDS011;15616;40.148;-102.718;2023-01-24T07:46:52;39.97;;;6.43;;
28373;SDS011;15616;40.148;-102.718;2023-01-24T07:49:18;54.42;;;6.97;;
28373;SDS011;15616;40.148;-102.718;2023-01-24T07:51:44;44.67;;;6.03;;
28373;SDS011;15616;40.148;-102.718;2023-01-24T07:54:13;28.58;;;5.05;;
28373;SDS011;15616;40.148;-102.718;2023-01-24T07:56:40;26.13;;;4.45;;
28373;SDS011;15616;40.148;-102.718;2023-01-24T07:59:06;48.05;;;4.72;;
28373;SDS011;15616;40.148;-102.718;2023-01-24T08:01:31;31.35;;;5.07;;
28373;SDS011;15616;40.148;-102.718;2023-01-24T08:03:57;23.98;;;5.05;;
28373;SDS011;15616;40.148;-102.718;2023-01-24T08:06:23;28.77;;;4.88;;
28373;SDS011;15616;40.148;-102.718;2023-01-24T08:08:50;27.88;;;4.95;;
28373;SDS011;15616;40.148;-102.718;2023-01-24T08:11:16;32.78;;;5.40;;
28373;SDS011;15616;40.148;-102.718;2023-01-24T08:13:43;31.15;;;4.63;;
28373;SDS011;15616;40.148;-102.718;2023-01-24T08:16:09;26.85;;;4.88;;
28373;SDS011;15616;40.148;-102.718;2023-01-24T08:18:38;40.50;;;5.18;;
28373;SDS011;15616;40.148;-102.718;2023-01-24T08:21:06;37.63;;;4.65;;
28373;SDS011;15616;40.148;-102.718;2023-01-24T08:23:32;41.90;;;4.60;;
28373;SDS011;15616;40.148;-102.718;2023-01-24T08:25:58;30.83;;;4.28;;
28373;SDS011;15616;40.148;-102.718;2023-01-24T08:28:25;26.58;;;4.45;;
28373;SDS011;15616;40.148;-102.718;2023-01-24T08:30:52;31.75;;;4.20;;
28373;SDS011;15616;40.148;-102.718;2023-01-24T08:33:18;29.65;;;4.28;;
28373;SDS011;15616;40.148;-102.718;2023-01-24T08:35:44;53.33;;;5.65;;
28373;SDS011;15616;40.148;-102.718;2023-01-24T08:38:12;27.38;;;4.38;;
28373;SDS011;15616;40.148;-102.718;2023-01-24T08:40:38;15.73;;;3.58;;
28373;SDS011;15616;40.148;-102.718;2023-01-24T08:43:04;22.98;;;4.03;;
28373;SDS011;15616;40.148;-102.718;2023-01-24T08:45:30;35.17;;;4.60;;
28373;SDS011;15616;40.148;-102.718;2023-01-24T08:47:57;27.35;;;4.25;;
28373;SDS011;15616;40.148;-102.718;2023-01-24T08:50:23;35.67;;;4.90;;
28373;SDS011;15616;40.148;-102.718;2023-01-24T08:52:49;45.97;;;4.88;;
28373;SDS011;15616;40.148;-102.718;2023-01-24T08:55:18;29.60;;;4.20;;
28373;SDS011;15616;40.148;-102.718;2023-01-24T08:57:44;33.40;;;5.18;;
28373;SDS011;15616;40.148;-102.718;2023-01-24T09:00:10;34.72;;;5.43;;
28373;SDS011;15616;40.148;-102.718;2023-01-24T09:02:36;44.90;;;5.47;;
28373;SDS011;15616;40.148;-102.718;2023-01-24T09:05:06;41.25;;;5.93;;
28373;SDS011;15616;40.148;-102.718;2023-01-24T09:07:33;72.18;;;7.53;;
28373;SDS011;15616;40.148;-102.718;2023-01-24T09:10:02;51.45;;;6.38;;
28373;SDS011;15616;40.148;-102.718;2023-01-24T09:12:28;66.45;;;7.43;;
28373;SDS011;15616;40.148;-102.718;2023-01-24T09:14:56;49.47;;;6.55;;
28373;SDS011;15616;40.148;-102.718;2023-01-24T09:17:23;70.72;;;8.23;;
28373;SDS011;15616;40.148;-102.718;2023-01-24T09:19:50;46.72;;;6.28;;
28373;SDS011;15616;40.148;-102.718;2023-01-24T09:22:16;58.60;;;6.28;;
28373;SDS011;15616;40.148;-102.718;2023-01-24T09:24:42;77.75;;;7.40;;
28373;SDS011;15616;40.148;-102.718;2023-01-24T09:27:09;90.20;;;6.88;;
28373;SDS011;15616;40.148;-102.718;2023-01-24T09:29:36;87.35;;;7.22;;
28373;SDS011;15616;40.148;-102.718;2023-01-24T09:32:02;55.92;;;7.03;;
28373;SDS011;15616;40.148;-102.718;2023-01-24T09:34:28;50.30;;;6.50;;
28373;SDS011;15616;40.148;-102.718;2023-01-24T09:36:54;51.75;;;6.65;;
28373;SDS011;15616;40.148;-102.718;2023-01-24T09:39:19;71.05;;;6.28;;
28373;SDS011;15616;40.148;-102.718;2023-01-24T09:41:53;50.90;;;5.90;;
28373;SDS011;15616;40.148;-102.718;2023-01-24T09:50:05;44.15;;;5.35;;
28373;SDS011;15616;40.148;-102.718;2023-01-24T09:52:40;35.72;;;5.20;;
28373;SDS011;15616;40.148;-102.718;2023-01-24T09:55:19;44.00;;;5.82;;
28373;SDS011;15616;40.148;-102.718;2023-01-24T09:57:55;42.45;;;5.45;;
28373;SDS011;15616;40.148;-102.718;2023-01-24T10:00:26;44.65;;;5.78;;
28373;SDS011;15616;40.148;-102.718;2023-01-24T10:03:03;52.78;;;5.93;;
28373;SDS011;15616;40.148;-102.718;2023-01-24T10:05:39;51.53;;;5.20;;
28373;SDS011;15616;40.148;-102.718;2023-01-24T10:22:59;44.78;;;6.25;;
28373;SDS011;15616;40.148;-102.718;2023-01-24T10:25:11;40.25;;;6.03;;
28373;SDS011;15616;40.148;-102.718;2023-01-24T10:27:42;41.13;;;6.15;;
28373;SDS011;15616;40.148;-102.718;2023-01-24T10:30:14;62.97;;;7.00;;
28373;SDS011;15616;40.148;-102.718;2023-01-24T10:32:49;60.00;;;7.18;;
28373;SDS011;15616;40.148;-102.718;2023-01-24T10:35:25;68.88;;;8.35;;
28373;SDS011;15616;40.148;-102.718;2023-01-24T10:38:05;62.75;;;7.55;;
28373;SDS011;15616;40.148;-102.718;2023-01-24T10:40:47;66.40;;;7.28;;
28373;SDS011;15616;40.148;-102.718;2023-01-24T10:43:25;47.83;;;7.25;;
28373;SDS011;15616;40.148;-102.718;2023-01-24T10:48:37;49.33;;;6.75;;
28373;SDS011;15616;40.148;-102.718;2023-01-24T10:51:10;51.17;;;7.25;;
28373;SDS011;15616;40.148;-102.718;2023-01-24T10:53:39;44.03;;;6.13;;
28373;SDS011;15616;40.148;-102.718;2023-01-24T10:56:05;55.15;;;6.60;;
28373;SDS011;15616;40.148;-102.718;2023-01-24T11:01:21;63.78;;;6.50;;
28373;SDS011;15616;40.148;-102.718;2023-01-24T11:03:49;58.33;;;6.45;;
28373;SDS011;15616;40.148;-102.718;2023-01-24T11:06:49;52.95;;;6.18;;
28373;SDS011;15616;40.148;-102.718;2023-01-24T11:09:11;45.45;;;6.63;;
28373;SDS011;15616;40.148;-102.718;2023-01-24T11:11:45;49.95;;;5.85;;
28373;SDS011;15616;40.148;-102.718;2023-01-24T11:14:19;47.50;;;6.30;;
28373;SDS011;15616;40.148;-102.718;2023-01-24T11:16:48;50.15;;;7.15;;
28373;SDS011;15616;40.148;-102.718;2023-01-24T11:19:29;53.88;;;6.65;;
28373;SDS011;15616;40.148;-102.718;2023-01-24T11:22:01;65.30;;;8.55;;
28373;SDS011;15616;40.148;-102.718;2023-01-24T11:24:44;50.97;;;6.70;;
28373;SDS011;15616;40.148;-102.718;2023-01-24T11:27:13;53.05;;;6.95;;
28373;SDS011;15616;40.148;-102.718;2023-01-24T11:29:41;64.07;;;7.85;;
28373;SDS011;15616;40.148;-102.718;2023-01-24T11:35:08;34.67;;;5.90;;
28373;SDS011;15616;40.148;-102.718;2023-01-24T11:40:33;43.92;;;6.15;;
28373;SDS011;15616;40.148;-102.718;2023-01-24T11:43:06;49.38;;;6.05;;
28373;SDS011;15616;40.148;-102.718;2023-01-24T11:48:33;42.60;;;7.22;;
28373;SDS011;15616;40.148;-102.718;2023-01-24T11:51:12;53.90;;;7.63;;
28373;SDS011;15616;40.148;-102.718;2023-01-24T12:02:26;98.00;;;9.48;;
28373;SDS011;15616;40.148;-102.718;2023-01-24T12:10:31;85.22;;;8.43;;
28373;SDS011;15616;40.148;-102.718;2023-01-24T12:13:22;70.60;;;8.77;;
28373;SDS011;15616;40.148;-102.718;2023-01-24T12:19:06;80.78;;;7.22;;
28373;SDS011;15616;40.148;-102.718;2023-01-24T12:21:34;62.58;;;8.05;;
28373;SDS011;15616;40.148;-102.718;2023-01-24T12:24:01;58.17;;;7.05;;
28373;SDS011;15616;40.148;-102.718;2023-01-24T12:26:36;65.57;;;7.43;;
28373;SDS011;15616;40.148;-102.718;2023-01-24T12:29:12;51.67;;;7.00;;
28373;SDS011;15616;40.148;-102.718;2023-01-24T12:37:31;72.55;;;7.88;;
28373;SDS011;15616;40.148;-102.718;2023-01-24T12:45:28;67.00;;;8.23;;
28373;SDS011;15616;40.148;-102.718;2023-01-24T12:47:57;61.88;;;7.75;;
28373;SDS011;15616;40.148;-102.718;2023-01-24T12:50:40;90.78;;;8.45;;
28373;SDS011;15616;40.148;-102.718;2023-01-24T12:53:14;58.22;;;7.80;;
28373;SDS011;15616;40.148;-102.718;2023-01-24T12:55:52;86.53;;;8.82;;
28373;SDS011;15616;40.148;-102.718;2023-01-24T12:58:35;61.78;;;7.72;;
28373;SDS011;15616;40.148;-102.718;2023-01-24T13:06:28;71.47;;;8.68;;
28373;SDS011;15616;40.148;-102.718;2023-01-24T13:11:27;67.28;;;8.30;;
28373;SDS011;15616;40.148;-102.718;2023-01-24T13:16:28;85.90;;;10.35;;
28373;SDS011;15616;40.148;-102.718;2023-01-24T13:21:55;55.25;;;7.63;;
28373;SDS011;15616;40.148;-102.718;2023-01-24T13:27:19;56.75;;;7.53;;
28373;SDS011;15616;40.148;-102.718;2023-01-24T13:32:57;79.18;;;8.35;;
28373;SDS011;15616;40.148;-102.718;2023-01-24T13:35:27;58.15;;;7.30;;
28373;SDS011;15616;40.148;-102.718;2023-01-24T13:38:15;54.97;;;7.13;;
28373;SDS011;15616;40.148;-102.718;2023-01-24T13:41:01;55.60;;;8.07;;
28373;SDS011;15616;40.148;-102.718;2023-01-24T13:46:47;44.85;;;7.20;;
28373;SDS011;15616;40.148;-102.718;2023-01-24T13:54:58;65.68;;;8.93;;
28373;SDS011;15616;40.148;-102.718;2023-01-24T13:57:44;92.07;;;9.50;;
28373;SDS011;15616;40.148;-102.718;2023-01-24T14:08:00;51.53;;;7.40;;
28373;SDS011;15616;40.148;-102.718;2023-01-24T14:11:32;59.83;;;7.22;;
28373;SDS011;15616;40.148;-102.718;2023-01-24T14:21:32;61.78;;;7.70;;
28373;SDS011;15616;40.148;-102.718;2023-01-24T14:24:18;62.28;;;8.43;;
28373;SDS011;15616;40.148;-102.718;2023-01-24T14:26:49;69.85;;;8.68;;
28373;SDS011;15616;40.148;-102.718;2023-01-24T14:29:20;79.30;;;8.73;;
28373;SDS011;15616;40.148;-102.718;2023-01-24T14:31:51;63.13;;;9.05;;
28373;SDS011;15616;40.148;-102.718;2023-01-24T14:34:24;80.82;;;8.02;;
28373;SDS011;15616;40.148;-102.718;2023-01-24T14:37:00;54.50;;;7.90;;
28373;SDS011;15616;40.148;-102.718;2023-01-24T14:39:30;76.03;;;9.30;;
28373;SDS011;15616;40.148;-102.718;2023-01-24T14:41:57;69.18;;;8.35;;
28373;SDS011;15616;40.148;-102.718;2023-01-24T14:44:26;71.80;;;8.68;;
28373;SDS011;15616;40.148;-102.718;2023-01-24T14:47:00;83.25;;;8.48;;
28373;SDS011;15616;40.148;-102.718;2023-01-24T14:49:57;61.15;;;7.78;;
28373;SDS011;15616;40.148;-102.718;2023-01-24T14:52:25;71.30;;;8.18;;
28373;SDS011;15616;40.148;-102.718;2023-01-24T14:54:53;62.97;;;8.02;;
28373;SDS011;15616;40.148;-102.718;2023-01-24T14:57:25;57.63;;;8.60;;
28373;SDS011;15616;40.148;-102.718;2023-01-24T15:02:38;64.45;;;8.05;;
28373;SDS011;15616;40.148;-102.718;2023-01-24T15:05:25;66.32;;;8.65;;
28373;SDS011;15616;40.148;-102.718;2023-01-24T15:07:59;61.20;;;8.45;;
28373;SDS011;15616;40.148;-102.718;2023-01-24T15:13:18;84.65;;;8.80;;
28373;SDS011;15616;40.148;-102.718;2023-01-24T15:15:48;83.25;;;9.13;;
28373;SDS011;15616;40.148;-102.718;2023-01-24T15:18:33;83.50;;;9.13;;
28373;SDS011;15616;40.148;-102.718;2023-01-24T15:21:00;81.03;;;8.95;;
28373;SDS011;15616;40.148;-102.718;2023-01-24T15:23:28;70.25;;;9.18;;
28373;SDS011;15616;40.148;-102.718;2023-01-24T15:25:56;63.75;;;8.52;;
28373;SDS011;15616;40.148;-102.718;2023-01-24T15:28:25;56.20;;;7.60;;
28373;SDS011;15616;40.148;-102.718;2023-01-24T15:30:55;66.93;;;8.43;;
28373;SDS011;15616;40.148;-102.718;2023-01-24T15:33:26;49.53;;;7.85;;
28373;SDS011;15616;40.148;-102.718;2023-01-24T15:36:20;56.08;;;7.80;;
28373;SDS011;15616;40.148;-102.718;2023-01-24T15:38:46;58.30;;;7.53;;
28373;SDS011;15616;40.148;-102.718;2023-01-24T15:41:25;38.40;;;7.28;;
28373;SDS011;15616;40.148;-102.718;2023-01-24T15:44:12;54.22;;;7.18;;
28373;SDS011;15616;40.148;-102.718;2023-01-24T15:46:42;70.32;;;8.15;;
28373;SDS011;15616;40.148;-102.718;2023-01-24T15:49:31;65.32;;;7.93;;
28373;SDS011;15616;40.148;-102.718;2023-01-24T15:54:35;48.92;;;7.93;;
28373;SDS011;15616;40.148;-102.718;2023-01-24T15:57:03;61.90;;;8.25;;
28373;SDS011;15616;40.148;-102.718;2023-01-24T15:59:41;46.20;;;6.88;;
28373;SDS011;15616;40.148;-102.718;2023-01-24T16:02:11;51.90;;;7.13;;
28373;SDS011;15616;40.148;-102.718;2023-01-24T16:04:38;55.38;;;7.97;;
28373;SDS011;15616;40.148;-102.718;2023-01-24T16:07:05;39.10;;;7.25;;
28373;SDS011;15616;40.148;-102.718;2023-01-24T16:09:31;48.85;;;7.03;;
28373;SDS011;15616;40.148;-102.718;2023-01-24T16:11:57;40.40;;;6.45;;
28373;SDS011;15616;40.148;-102.718;2023-01-24T16:14:25;48.28;;;7.22;;
28373;SDS011;15616;40.148;-102.718;2023-01-24T16:16:53;34.83;;;6.22;;
28373;SDS011;15616;40.148;-102.718;2023-01-24T16:19:22;42.38;;;6.90;;
28373;SDS011;15616;40.148;-102.718;2023-01-24T16:21:49;46.35;;;6.78;;
28373;SDS011;15616;40.148;-102.718;2023-01-24T16:24:16;49.80;;;6.90;;